sensor_id;sensor_type;location;lat;lon;timestamp;temperature;humidity
28244;DHT22;15510;52.512;13.300;2024-01-16T00:02:15;1.70;99.90
28244;DHT22;15510;52.512;13.300;2024-01-16T00:04:41;1.70;99.90
28244;DHT22;15510;52.512;13.300;2024-01-16T00:07:06;1.70;99.90
28244;DHT22;15510;52.512;13.300;2024-01-16T00:09:33;1.70;99.90
28244;DHT22;15510;52.512;13.300;2024-01-16T00:12:00;1.60;99.90
28244;DHT22;15510;52.512;13.300;2024-01-16T00:14:28;1.60;99.90
28244;DHT22;15510;52.512;13.300;2024-01-16T00:16:56;1.60;99.90
28244;DHT22;15510;52.512;13.300;2024-01-16T00:19:22;1.60;99.90
28244;DHT22;15510;52.512;13.300;2024-01-16T00:21:48;1.40;99.90
28244;DHT22;15510;52.512;13.300;2024-01-16T00:24:16;1.30;99.90
28244;DHT22;15510;52.512;13.300;2024-01-16T00:26:42;1.30;99.90
28244;DHT22;15510;52.512;13.300;2024-01-16T00:29:16;1.20;99.90
28244;DHT22;15510;52.512;13.300;2024-01-16T00:31:45;1.20;99.90
28244;DHT22;15510;52.512;13.300;2024-01-16T00:34:11;1.20;99.90
28244;DHT22;15510;52.512;13.300;2024-01-16T00:36:37;1.30;99.90
28244;DHT22;15510;52.512;13.300;2024-01-16T00:39:03;1.40;99.90
28244;DHT22;15510;52.512;13.300;2024-01-16T00:41:29;1.40;99.90
28244;DHT22;15510;52.512;13.300;2024-01-16T00:43:55;1.50;99.90
28244;DHT22;15510;52.512;13.300;2024-01-16T00:46:24;1.40;99.90
28244;DHT22;15510;52.512;13.300;2024-01-16T00:48:49;1.10;99.90
28244;DHT22;15510;52.512;13.300;2024-01-16T00:51:15;1.10;99.90
28244;DHT22;15510;52.512;13.300;2024-01-16T00:53:42;1.00;99.90
28244;DHT22;15510;52.512;13.300;2024-01-16T00:56:08;0.80;99.90
28244;DHT22;15510;52.512;13.300;2024-01-16T00:58:37;0.60;99.90
28244;DHT22;15510;52.512;13.300;2024-01-16T01:01:03;0.60;99.90
28244;DHT22;15510;52.512;13.300;2024-01-16T01:03:29;0.50;99.90
28244;DHT22;15510;52.512;13.300;2024-01-16T01:05:55;0.60;99.90
28244;DHT22;15510;52.512;13.300;2024-01-16T01:08:21;0.60;99.90
28244;DHT22;15510;52.512;13.300;2024-01-16T01:10:47;0.60;99.90
28244;DHT22;15510;52.512;13.300;2024-01-16T01:13:13;0.50;99.90
28244;DHT22;15510;52.512;13.300;2024-01-16T01:15:39;0.40;99.90
28244;DHT22;15510;52.512;13.300;2024-01-16T01:18:05;0.40;99.90
28244;DHT22;15510;52.512;13.300;2024-01-16T01:20:32;0.30;99.90
28244;DHT22;15510;52.512;13.300;2024-01-16T01:22:58;0.30;99.90
28244;DHT22;15510;52.512;13.300;2024-01-16T01:25:25;0.20;99.90
28244;DHT22;15510;52.512;13.300;2024-01-16T01:27:54;0.30;99.90
28244;DHT22;15510;52.512;13.300;2024-01-16T01:30:20;0.30;99.90
28244;DHT22;15510;52.512;13.300;2024-01-16T01:32:51;0.30;99.90
28244;DHT22;15510;52.512;13.300;2024-01-16T01:35:17;0.20;99.90
28244;DHT22;15510;52.512;13.300;2024-01-16T01:37:45;0.10;99.90
28244;DHT22;15510;52.512;13.300;2024-01-16T01:40:11;0.20;99.90
28244;DHT22;15510;52.512;13.300;2024-01-16T01:42:40;0.20;99.90
28244;DHT22;15510;52.512;13.300;2024-01-16T01:45:06;0.20;99.90
28244;DHT22;15510;52.512;13.300;2024-01-16T01:47:32;0.20;99.90
28244;DHT22;15510;52.512;13.300;2024-01-16T01:49:58;0.10;99.90
28244;DHT22;15510;52.512;13.300;2024-01-16T01:52:27;0.10;99.90
28244;DHT22;15510;52.512;13.300;2024-01-16T01:54:56;0.10;99.90
28244;DHT22;15510;52.512;13.300;2024-01-16T01:57:23;0.10;99.90
28244;DHT22;15510;52.512;13.300;2024-01-16T01:59:49;0.10;99.90
28244;DHT22;15510;52.512;13.300;2024-01-16T02:02:17;0.10;99.90
28244;DHT22;15510;52.512;13.300;2024-01-16T02:04:46;0.10;99.90
28244;DHT22;15510;52.512;13.300;2024-01-16T02:07:12;0.10;99.90
28244;DHT22;15510;52.512;13.300;2024-01-16T02:09:47;0.10;99.90
28244;DHT22;15510;52.512;13.300;2024-01-16T02:12:18;0.10;99.90
28244;DHT22;15510;52.512;13.300;2024-01-16T02:14:44;0.10;99.90
28244;DHT22;15510;52.512;13.300;2024-01-16T02:17:10;0.10;99.90
28244;DHT22;15510;52.512;13.300;2024-01-16T02:19:36;0.10;99.90
28244;DHT22;15510;52.512;13.300;2024-01-16T02:22:04;0.20;99.90
28244;DHT22;15510;52.512;13.300;2024-01-16T02:24:33;0.20;99.90
28244;DHT22;15510;52.512;13.300;2024-01-16T02:27:08;0.30;99.90
28244;DHT22;15510;52.512;13.300;2024-01-16T02:29:40;0.30;99.90
28244;DHT22;15510;52.512;13.300;2024-01-16T02:32:19;0.30;99.90
28244;DHT22;15510;52.512;13.300;2024-01-16T02:34:45;0.40;99.90
28244;DHT22;15510;52.512;13.300;2024-01-16T02:37:10;0.30;99.90
28244;DHT22;15510;52.512;13.300;2024-01-16T02:39:36;0.30;99.90
28244;DHT22;15510;52.512;13.300;2024-01-16T02:42:05;0.30;99.90
28244;DHT22;15510;52.512;13.300;2024-01-16T02:44:31;0.30;99.90
28244;DHT22;15510;52.512;13.300;2024-01-16T02:46:57;0.30;99.90
28244;DHT22;15510;52.512;13.300;2024-01-16T02:49:23;0.20;99.90
28244;DHT22;15510;52.512;13.300;2024-01-16T02:51:51;0.30;99.90
28244;DHT22;15510;52.512;13.300;2024-01-16T02:54:17;0.20;99.90
28244;DHT22;15510;52.512;13.300;2024-01-16T02:56:46;0.20;99.90
28244;DHT22;15510;52.512;13.300;2024-01-16T02:59:12;0.20;99.90
28244;DHT22;15510;52.512;13.300;2024-01-16T03:01:37;0.20;99.90
28244;DHT22;15510;52.512;13.300;2024-01-16T03:04:03;0.10;99.90
28244;DHT22;15510;52.512;13.300;2024-01-16T03:06:31;0.10;99.90
28244;DHT22;15510;52.512;13.300;2024-01-16T03:08:57;0.10;99.90
28244;DHT22;15510;52.512;13.300;2024-01-16T03:11:23;0.20;99.90
28244;DHT22;15510;52.512;13.300;2024-01-16T03:13:49;0.20;99.90
28244;DHT22;15510;52.512;13.300;2024-01-16T03:16:17;0.30;99.90
28244;DHT22;15510;52.512;13.300;2024-01-16T03:18:43;0.30;99.90
28244;DHT22;15510;52.512;13.300;2024-01-16T03:21:10;0.30;99.90
28244;DHT22;15510;52.512;13.300;2024-01-16T03:23:39;0.40;99.90
28244;DHT22;15510;52.512;13.300;2024-01-16T03:26:05;0.40;99.90
28244;DHT22;15510;52.512;13.300;2024-01-16T03:28:30;0.50;99.90
28244;DHT22;15510;52.512;13.300;2024-01-16T03:30:56;0.50;99.90
28244;DHT22;15510;52.512;13.300;2024-01-16T03:33:22;0.50;99.90
28244;DHT22;15510;52.512;13.300;2024-01-16T03:35:54;0.50;99.90
28244;DHT22;15510;52.512;13.300;2024-01-16T03:38:20;0.40;99.90
28244;DHT22;15510;52.512;13.300;2024-01-16T03:40:46;0.30;99.90
28244;DHT22;15510;52.512;13.300;2024-01-16T03:43:11;0.20;99.90
28244;DHT22;15510;52.512;13.300;2024-01-16T03:45:40;0.10;99.90
28244;DHT22;15510;52.512;13.300;2024-01-16T03:48:06;0.20;99.90
28244;DHT22;15510;52.512;13.300;2024-01-16T03:50:32;0.20;99.90
28244;DHT22;15510;52.512;13.300;2024-01-16T03:52:59;0.20;99.90
28244;DHT22;15510;52.512;13.300;2024-01-16T03:55:24;0.20;99.90
28244;DHT22;15510;52.512;13.300;2024-01-16T03:57:50;0.30;99.90
28244;DHT22;15510;52.512;13.300;2024-01-16T04:00:16;0.30;99.90
28244;DHT22;15510;52.512;13.300;2024-01-16T04:02:42;0.30;99.90
28244;DHT22;15510;52.512;13.300;2024-01-16T04:05:08;0.30;99.90
28244;DHT22;15510;52.512;13.300;2024-01-16T04:07:34;0.30;99.90
28244;DHT22;15510;52.512;13.300;2024-01-16T04:10:06;0.40;99.90
28244;DHT22;15510;52.512;13.300;2024-01-16T04:12:32;0.40;99.90
28244;DHT22;15510;52.512;13.300;2024-01-16T04:14:57;0.40;99.90
28244;DHT22;15510;52.512;13.300;2024-01-16T04:17:23;0.40;99.90
28244;DHT22;15510;52.512;13.300;2024-01-16T04:19:49;0.40;99.90
28244;DHT22;15510;52.512;13.300;2024-01-16T04:22:18;0.40;99.90
28244;DHT22;15510;52.512;13.300;2024-01-16T04:24:44;0.50;99.90
28244;DHT22;15510;52.512;13.300;2024-01-16T04:27:11;0.40;99.90
28244;DHT22;15510;52.512;13.300;2024-01-16T04:29:37;0.20;99.90
28244;DHT22;15510;52.512;13.300;2024-01-16T04:32:12;0.20;99.90
28244;DHT22;15510;52.512;13.300;2024-01-16T04:34:37;0.20;99.90
28244;DHT22;15510;52.512;13.300;2024-01-16T04:37:03;0.30;99.90
28244;DHT22;15510;52.512;13.300;2024-01-16T04:39:29;0.40;99.90
28244;DHT22;15510;52.512;13.300;2024-01-16T04:41:55;0.40;99.90
28244;DHT22;15510;52.512;13.300;2024-01-16T04:44:20;0.40;99.90
28244;DHT22;15510;52.512;13.300;2024-01-16T04:46:46;0.50;99.90
28244;DHT22;15510;52.512;13.300;2024-01-16T04:49:12;0.50;99.90
28244;DHT22;15510;52.512;13.300;2024-01-16T04:51:38;0.50;99.90
28244;DHT22;15510;52.512;13.300;2024-01-16T04:54:03;0.50;99.90
28244;DHT22;15510;52.512;13.300;2024-01-16T04:56:29;0.50;99.90
28244;DHT22;15510;52.512;13.300;2024-01-16T04:59:00;0.50;99.90
28244;DHT22;15510;52.512;13.300;2024-01-16T05:01:26;0.50;99.90
28244;DHT22;15510;52.512;13.300;2024-01-16T05:03:52;0.50;99.90
28244;DHT22;15510;52.512;13.300;2024-01-16T05:06:21;0.40;99.90
28244;DHT22;15510;52.512;13.300;2024-01-16T05:08:47;0.40;99.90
28244;DHT22;15510;52.512;13.300;2024-01-16T05:11:15;0.50;99.90
28244;DHT22;15510;52.512;13.300;2024-01-16T05:13:43;0.50;99.90
28244;DHT22;15510;52.512;13.300;2024-01-16T05:16:10;0.40;99.90
28244;DHT22;15510;52.512;13.300;2024-01-16T05:18:35;0.40;99.90
28244;DHT22;15510;52.512;13.300;2024-01-16T05:21:07;0.40;99.90
28244;DHT22;15510;52.512;13.300;2024-01-16T05:23:33;0.40;99.90
28244;DHT22;15510;52.512;13.300;2024-01-16T05:26:01;0.40;99.90
28244;DHT22;15510;52.512;13.300;2024-01-16T05:28:27;0.40;99.90
28244;DHT22;15510;52.512;13.300;2024-01-16T05:30:53;0.40;99.90
28244;DHT22;15510;52.512;13.300;2024-01-16T05:33:19;0.40;99.90
28244;DHT22;15510;52.512;13.300;2024-01-16T05:35:45;0.30;99.90
28244;DHT22;15510;52.512;13.300;2024-01-16T05:38:11;0.20;99.90
28244;DHT22;15510;52.512;13.300;2024-01-16T05:40:42;0.10;99.90
28244;DHT22;15510;52.512;13.300;2024-01-16T05:43:08;0.00;99.90
28244;DHT22;15510;52.512;13.300;2024-01-16T05:45:46;-0.10;99.90
28244;DHT22;15510;52.512;13.300;2024-01-16T05:48:18;-0.10;99.90
28244;DHT22;15510;52.512;13.300;2024-01-16T05:50:45;0.00;99.90
28244;DHT22;15510;52.512;13.300;2024-01-16T05:53:13;0.00;99.90
28244;DHT22;15510;52.512;13.300;2024-01-16T05:55:39;0.00;99.90
28244;DHT22;15510;52.512;13.300;2024-01-16T05:58:07;0.10;99.90
28244;DHT22;15510;52.512;13.300;2024-01-16T06:00:33;0.20;99.90
28244;DHT22;15510;52.512;13.300;2024-01-16T06:03:02;0.10;99.90
28244;DHT22;15510;52.512;13.300;2024-01-16T06:05:29;0.10;99.90
28244;DHT22;15510;52.512;13.300;2024-01-16T06:07:57;0.10;99.90
28244;DHT22;15510;52.512;13.300;2024-01-16T06:10:23;0.00;99.90
28244;DHT22;15510;52.512;13.300;2024-01-16T06:12:49;-0.10;99.90
28244;DHT22;15510;52.512;13.300;2024-01-16T06:15:15;0.00;99.90
28244;DHT22;15510;52.512;13.300;2024-01-16T06:17:46;0.00;99.90
28244;DHT22;15510;52.512;13.300;2024-01-16T06:20:17;-0.10;99.90
28244;DHT22;15510;52.512;13.300;2024-01-16T06:22:49;-0.10;99.90
28244;DHT22;15510;52.512;13.300;2024-01-16T06:25:19;0.00;99.90
28244;DHT22;15510;52.512;13.300;2024-01-16T06:27:44;0.10;99.90
28244;DHT22;15510;52.512;13.300;2024-01-16T06:30:11;0.00;99.90
28244;DHT22;15510;52.512;13.300;2024-01-16T06:32:37;0.00;99.90
28244;DHT22;15510;52.512;13.300;2024-01-16T06:35:03;0.10;99.90
28244;DHT22;15510;52.512;13.300;2024-01-16T06:37:31;0.10;99.90
28244;DHT22;15510;52.512;13.300;2024-01-16T06:39:57;0.00;99.90
28244;DHT22;15510;52.512;13.300;2024-01-16T06:42:28;0.00;99.90
28244;DHT22;15510;52.512;13.300;2024-01-16T06:44:54;0.00;99.90
28244;DHT22;15510;52.512;13.300;2024-01-16T06:47:20;0.00;99.90
28244;DHT22;15510;52.512;13.300;2024-01-16T06:49:49;0.00;99.90
28244;DHT22;15510;52.512;13.300;2024-01-16T06:52:15;-0.10;99.90
28244;DHT22;15510;52.512;13.300;2024-01-16T06:54:48;-0.20;99.90
28244;DHT22;15510;52.512;13.300;2024-01-16T06:57:14;-0.20;99.90
28244;DHT22;15510;52.512;13.300;2024-01-16T06:59:40;-0.20;99.90
28244;DHT22;15510;52.512;13.300;2024-01-16T07:02:06;-0.20;99.90
28244;DHT22;15510;52.512;13.300;2024-01-16T07:04:33;-0.10;99.90
28244;DHT22;15510;52.512;13.300;2024-01-16T07:06:59;0.00;99.90
28244;DHT22;15510;52.512;13.300;2024-01-16T07:09:25;0.00;99.90
28244;DHT22;15510;52.512;13.300;2024-01-16T07:11:54;0.10;99.90
28244;DHT22;15510;52.512;13.300;2024-01-16T07:14:20;0.20;99.90
28244;DHT22;15510;52.512;13.300;2024-01-16T07:16:46;0.20;99.90
28244;DHT22;15510;52.512;13.300;2024-01-16T07:19:14;0.30;99.90
28244;DHT22;15510;52.512;13.300;2024-01-16T07:21:40;0.30;99.90
28244;DHT22;15510;52.512;13.300;2024-01-16T07:24:06;0.40;99.90
28244;DHT22;15510;52.512;13.300;2024-01-16T07:26:32;0.30;99.90
28244;DHT22;15510;52.512;13.300;2024-01-16T07:28:57;0.20;99.90
28244;DHT22;15510;52.512;13.300;2024-01-16T07:31:24;0.20;99.90
28244;DHT22;15510;52.512;13.300;2024-01-16T07:33:49;0.10;99.90
28244;DHT22;15510;52.512;13.300;2024-01-16T07:36:15;0.20;99.90
28244;DHT22;15510;52.512;13.300;2024-01-16T07:38:41;0.20;99.90
28244;DHT22;15510;52.512;13.300;2024-01-16T07:41:07;0.40;99.90
28244;DHT22;15510;52.512;13.300;2024-01-16T07:43:33;0.40;99.90
28244;DHT22;15510;52.512;13.300;2024-01-16T07:45:59;0.50;99.90
28244;DHT22;15510;52.512;13.300;2024-01-16T07:48:25;0.50;99.90
28244;DHT22;15510;52.512;13.300;2024-01-16T07:50:51;0.50;99.90
28244;DHT22;15510;52.512;13.300;2024-01-16T07:53:17;0.40;99.90
28244;DHT22;15510;52.512;13.300;2024-01-16T07:55:43;0.30;99.90
28244;DHT22;15510;52.512;13.300;2024-01-16T07:58:12;0.30;99.90
28244;DHT22;15510;52.512;13.300;2024-01-16T08:00:38;0.30;99.90
28244;DHT22;15510;52.512;13.300;2024-01-16T08:03:08;0.30;99.90
28244;DHT22;15510;52.512;13.300;2024-01-16T08:05:36;0.30;99.90
28244;DHT22;15510;52.512;13.300;2024-01-16T08:08:02;0.30;99.90
28244;DHT22;15510;52.512;13.300;2024-01-16T08:10:28;0.30;99.90
28244;DHT22;15510;52.512;13.300;2024-01-16T08:12:54;0.30;99.90
28244;DHT22;15510;52.512;13.300;2024-01-16T08:15:23;0.30;99.90
28244;DHT22;15510;52.512;13.300;2024-01-16T08:17:49;0.30;99.90
28244;DHT22;15510;52.512;13.300;2024-01-16T08:20:14;0.40;99.90
28244;DHT22;15510;52.512;13.300;2024-01-16T08:22:40;0.40;99.90
28244;DHT22;15510;52.512;13.300;2024-01-16T08:25:06;0.40;99.90
28244;DHT22;15510;52.512;13.300;2024-01-16T08:27:32;0.40;99.90
28244;DHT22;15510;52.512;13.300;2024-01-16T08:30:05;0.40;99.90
28244;DHT22;15510;52.512;13.300;2024-01-16T08:32:31;0.40;99.90
28244;DHT22;15510;52.512;13.300;2024-01-16T08:34:57;0.40;99.90
28244;DHT22;15510;52.512;13.300;2024-01-16T08:37:23;0.40;99.90
28244;DHT22;15510;52.512;13.300;2024-01-16T08:39:51;0.50;99.90
28244;DHT22;15510;52.512;13.300;2024-01-16T08:42:16;0.50;99.90
28244;DHT22;15510;52.512;13.300;2024-01-16T08:44:43;0.60;99.90
28244;DHT22;15510;52.512;13.300;2024-01-16T08:47:09;0.60;99.90
28244;DHT22;15510;52.512;13.300;2024-01-16T08:49:35;0.60;99.90
28244;DHT22;15510;52.512;13.300;2024-01-16T08:52:04;0.70;99.90
28244;DHT22;15510;52.512;13.300;2024-01-16T08:54:30;0.80;99.90
28244;DHT22;15510;52.512;13.300;2024-01-16T08:56:56;0.80;99.90
28244;DHT22;15510;52.512;13.300;2024-01-16T08:59:23;0.80;99.90
28244;DHT22;15510;52.512;13.300;2024-01-16T09:01:49;0.80;99.90
28244;DHT22;15510;52.512;13.300;2024-01-16T09:04:15;0.90;99.90
28244;DHT22;15510;52.512;13.300;2024-01-16T09:06:41;0.90;99.90
28244;DHT22;15510;52.512;13.300;2024-01-16T09:09:07;0.80;99.90
28244;DHT22;15510;52.512;13.300;2024-01-16T09:11:34;0.70;99.90
28244;DHT22;15510;52.512;13.300;2024-01-16T09:14:03;0.80;99.90
28244;DHT22;15510;52.512;13.300;2024-01-16T09:16:29;0.80;99.90
28244;DHT22;15510;52.512;13.300;2024-01-16T09:18:55;0.80;99.90
28244;DHT22;15510;52.512;13.300;2024-01-16T09:21:21;0.90;99.90
28244;DHT22;15510;52.512;13.300;2024-01-16T09:23:49;0.90;99.90
28244;DHT22;15510;52.512;13.300;2024-01-16T09:26:15;0.80;99.90
28244;DHT22;15510;52.512;13.300;2024-01-16T09:28:43;0.80;99.90
28244;DHT22;15510;52.512;13.300;2024-01-16T09:31:09;0.80;99.90
28244;DHT22;15510;52.512;13.300;2024-01-16T09:33:35;0.80;99.90
28244;DHT22;15510;52.512;13.300;2024-01-16T09:36:01;0.80;99.90
28244;DHT22;15510;52.512;13.300;2024-01-16T09:38:29;0.80;99.90
28244;DHT22;15510;52.512;13.300;2024-01-16T09:40:56;0.80;99.90
28244;DHT22;15510;52.512;13.300;2024-01-16T09:43:28;0.80;99.90
28244;DHT22;15510;52.512;13.300;2024-01-16T09:46:02;0.90;99.90
28244;DHT22;15510;52.512;13.300;2024-01-16T09:48:31;1.00;99.90
28244;DHT22;15510;52.512;13.300;2024-01-16T09:50:57;1.00;99.90
28244;DHT22;15510;52.512;13.300;2024-01-16T09:53:23;1.00;99.90
28244;DHT22;15510;52.512;13.300;2024-01-16T09:55:50;1.00;99.90
28244;DHT22;15510;52.512;13.300;2024-01-16T09:58:20;1.10;99.90
28244;DHT22;15510;52.512;13.300;2024-01-16T10:00:46;1.20;99.90
28244;DHT22;15510;52.512;13.300;2024-01-16T10:03:12;1.20;99.90
28244;DHT22;15510;52.512;13.300;2024-01-16T10:05:45;1.20;99.90
28244;DHT22;15510;52.512;13.300;2024-01-16T10:08:12;1.20;99.90
28244;DHT22;15510;52.512;13.300;2024-01-16T10:10:38;1.30;99.90
28244;DHT22;15510;52.512;13.300;2024-01-16T10:13:06;1.30;99.90
28244;DHT22;15510;52.512;13.300;2024-01-16T10:15:32;1.40;99.90
28244;DHT22;15510;52.512;13.300;2024-01-16T10:17:59;1.40;99.90
28244;DHT22;15510;52.512;13.300;2024-01-16T10:20:35;1.50;99.90
28244;DHT22;15510;52.512;13.300;2024-01-16T10:23:01;1.40;99.90
28244;DHT22;15510;52.512;13.300;2024-01-16T10:25:29;1.40;99.90
28244;DHT22;15510;52.512;13.300;2024-01-16T10:28:03;1.40;99.90
28244;DHT22;15510;52.512;13.300;2024-01-16T10:30:30;1.60;99.90
28244;DHT22;15510;52.512;13.300;2024-01-16T10:33:15;1.60;99.90
28244;DHT22;15510;52.512;13.300;2024-01-16T10:35:43;1.60;99.90
28244;DHT22;15510;52.512;13.300;2024-01-16T10:38:09;1.60;99.90
28244;DHT22;15510;52.512;13.300;2024-01-16T10:40:35;1.70;99.90
28244;DHT22;15510;52.512;13.300;2024-01-16T10:43:03;1.70;99.90
28244;DHT22;15510;52.512;13.300;2024-01-16T10:45:30;1.80;99.90
28244;DHT22;15510;52.512;13.300;2024-01-16T10:48:06;1.80;99.90
28244;DHT22;15510;52.512;13.300;2024-01-16T10:50:38;1.70;99.90
28244;DHT22;15510;52.512;13.300;2024-01-16T10:53:05;1.70;99.90
28244;DHT22;15510;52.512;13.300;2024-01-16T10:55:31;1.70;99.90
28244;DHT22;15510;52.512;13.300;2024-01-16T10:58:02;1.60;99.90
28244;DHT22;15510;52.512;13.300;2024-01-16T11:00:30;1.60;99.90
28244;DHT22;15510;52.512;13.300;2024-01-16T11:03:06;1.60;99.90
28244;DHT22;15510;52.512;13.300;2024-01-16T11:05:34;1.60;99.90
28244;DHT22;15510;52.512;13.300;2024-01-16T11:08:01;1.60;99.90
28244;DHT22;15510;52.512;13.300;2024-01-16T11:10:28;1.60;99.90
28244;DHT22;15510;52.512;13.300;2024-01-16T11:12:55;1.70;99.90
28244;DHT22;15510;52.512;13.300;2024-01-16T11:15:21;1.70;99.90
28244;DHT22;15510;52.512;13.300;2024-01-16T11:17:47;1.70;99.90
28244;DHT22;15510;52.512;13.300;2024-01-16T11:20:15;1.60;99.90
28244;DHT22;15510;52.512;13.300;2024-01-16T11:22:47;1.60;99.90
28244;DHT22;15510;52.512;13.300;2024-01-16T11:25:14;1.60;99.90
28244;DHT22;15510;52.512;13.300;2024-01-16T11:27:42;1.60;99.90
28244;DHT22;15510;52.512;13.300;2024-01-16T11:30:10;1.60;99.90
28244;DHT22;15510;52.512;13.300;2024-01-16T11:32:41;1.60;99.90
28244;DHT22;15510;52.512;13.300;2024-01-16T11:35:08;1.60;99.90
28244;DHT22;15510;52.512;13.300;2024-01-16T11:37:35;1.70;99.90
28244;DHT22;15510;52.512;13.300;2024-01-16T11:42:51;1.60;99.90
28244;DHT22;15510;52.512;13.300;2024-01-16T11:48:10;1.60;99.90
28244;DHT22;15510;52.512;13.300;2024-01-16T11:50:36;1.50;99.90
28244;DHT22;15510;52.512;13.300;2024-01-16T11:53:02;1.60;99.90
28244;DHT22;15510;52.512;13.300;2024-01-16T12:00:44;1.50;99.90
28244;DHT22;15510;52.512;13.300;2024-01-16T12:03:13;1.50;99.90
28244;DHT22;15510;52.512;13.300;2024-01-16T12:05:42;1.60;99.90
28244;DHT22;15510;52.512;13.300;2024-01-16T12:08:09;1.60;99.90
28244;DHT22;15510;52.512;13.300;2024-01-16T12:10:46;1.60;99.90
28244;DHT22;15510;52.512;13.300;2024-01-16T12:13:13;1.60;99.90
28244;DHT22;15510;52.512;13.300;2024-01-16T12:15:39;1.70;99.90
28244;DHT22;15510;52.512;13.300;2024-01-16T12:18:05;1.70;99.90
28244;DHT22;15510;52.512;13.300;2024-01-16T12:20:35;1.60;99.90
28244;DHT22;15510;52.512;13.300;2024-01-16T12:23:09;1.70;99.90
28244;DHT22;15510;52.512;13.300;2024-01-16T12:25:37;1.70;99.90
28244;DHT22;15510;52.512;13.300;2024-01-16T12:28:04;1.70;99.90
28244;DHT22;15510;52.512;13.300;2024-01-16T12:30:34;1.80;99.90
28244;DHT22;15510;52.512;13.300;2024-01-16T12:35:37;1.70;99.90
28244;DHT22;15510;52.512;13.300;2024-01-16T12:38:07;1.70;99.90
28244;DHT22;15510;52.512;13.300;2024-01-16T12:40:43;1.70;99.90
28244;DHT22;15510;52.512;13.300;2024-01-16T12:43:10;1.80;99.90
28244;DHT22;15510;52.512;13.300;2024-01-16T12:45:39;1.80;99.90
28244;DHT22;15510;52.512;13.300;2024-01-16T12:48:04;1.80;99.90
28244;DHT22;15510;52.512;13.300;2024-01-16T12:50:31;1.90;99.90
28244;DHT22;15510;52.512;13.300;2024-01-16T12:55:28;1.90;99.90
28244;DHT22;15510;52.512;13.300;2024-01-16T13:00:38;1.80;99.90
28244;DHT22;15510;52.512;13.300;2024-01-16T13:03:05;1.80;99.90
28244;DHT22;15510;52.512;13.300;2024-01-16T13:05:31;1.80;99.90
28244;DHT22;15510;52.512;13.300;2024-01-16T13:08:02;1.80;99.90
28244;DHT22;15510;52.512;13.300;2024-01-16T13:10:34;1.80;99.90
28244;DHT22;15510;52.512;13.300;2024-01-16T13:13:16;1.80;99.90
28244;DHT22;15510;52.512;13.300;2024-01-16T13:15:46;1.80;99.90
28244;DHT22;15510;52.512;13.300;2024-01-16T13:18:20;1.80;99.90
28244;DHT22;15510;52.512;13.300;2024-01-16T13:20:51;1.80;99.90
28244;DHT22;15510;52.512;13.300;2024-01-16T13:23:18;1.80;99.90
28244;DHT22;15510;52.512;13.300;2024-01-16T13:25:48;1.90;99.90
28244;DHT22;15510;52.512;13.300;2024-01-16T13:28:26;2.00;99.90
28244;DHT22;15510;52.512;13.300;2024-01-16T13:30:53;2.00;99.90
28244;DHT22;15510;52.512;13.300;2024-01-16T13:33:24;2.00;99.90
28244;DHT22;15510;52.512;13.300;2024-01-16T13:35:53;2.00;99.90
28244;DHT22;15510;52.512;13.300;2024-01-16T13:38:22;2.10;99.90
28244;DHT22;15510;52.512;13.300;2024-01-16T13:40:48;2.10;99.90
28244;DHT22;15510;52.512;13.300;2024-01-16T13:43:16;2.10;99.90
28244;DHT22;15510;52.512;13.300;2024-01-16T13:45:41;2.10;99.90
28244;DHT22;15510;52.512;13.300;2024-01-16T13:48:10;2.10;99.90
28244;DHT22;15510;52.512;13.300;2024-01-16T13:50:36;2.30;99.90
28244;DHT22;15510;52.512;13.300;2024-01-16T13:53:02;2.30;99.90
28244;DHT22;15510;52.512;13.300;2024-01-16T13:55:28;2.30;99.90
28244;DHT22;15510;52.512;13.300;2024-01-16T13:57:55;2.30;99.90
28244;DHT22;15510;52.512;13.300;2024-01-16T14:00:23;2.20;99.90
28244;DHT22;15510;52.512;13.300;2024-01-16T14:02:49;2.10;99.90
28244;DHT22;15510;52.512;13.300;2024-01-16T14:05:19;2.10;99.90
28244;DHT22;15510;52.512;13.300;2024-01-16T14:07:47;2.20;99.90
28244;DHT22;15510;52.512;13.300;2024-01-16T14:10:14;2.20;99.90
28244;DHT22;15510;52.512;13.300;2024-01-16T14:12:41;2.20;99.90
28244;DHT22;15510;52.512;13.300;2024-01-16T14:15:18;2.20;99.90
28244;DHT22;15510;52.512;13.300;2024-01-16T14:17:53;2.20;99.90
28244;DHT22;15510;52.512;13.300;2024-01-16T14:20:23;2.20;99.90
28244;DHT22;15510;52.512;13.300;2024-01-16T14:22:50;2.20;99.90
28244;DHT22;15510;52.512;13.300;2024-01-16T14:25:17;2.20;99.90
28244;DHT22;15510;52.512;13.300;2024-01-16T14:28:01;2.20;99.90
28244;DHT22;15510;52.512;13.300;2024-01-16T14:30:29;2.20;99.90
28244;DHT22;15510;52.512;13.300;2024-01-16T14:32:55;2.20;99.90
28244;DHT22;15510;52.512;13.300;2024-01-16T14:35:22;2.20;99.90
28244;DHT22;15510;52.512;13.300;2024-01-16T14:37:50;2.20;99.90
28244;DHT22;15510;52.512;13.300;2024-01-16T14:40:16;2.20;99.90
28244;DHT22;15510;52.512;13.300;2024-01-16T14:42:49;2.20;99.90
28244;DHT22;15510;52.512;13.300;2024-01-16T14:45:25;2.20;99.90
28244;DHT22;15510;52.512;13.300;2024-01-16T14:47:53;2.20;99.90
28244;DHT22;15510;52.512;13.300;2024-01-16T14:50:20;2.10;99.90
28244;DHT22;15510;52.512;13.300;2024-01-16T14:52:48;2.00;99.90
28244;DHT22;15510;52.512;13.300;2024-01-16T14:55:14;2.10;99.90
28244;DHT22;15510;52.512;13.300;2024-01-16T14:57:41;2.10;99.90
28244;DHT22;15510;52.512;13.300;2024-01-16T15:00:13;2.10;99.90
28244;DHT22;15510;52.512;13.300;2024-01-16T15:02:54;2.10;99.90
28244;DHT22;15510;52.512;13.300;2024-01-16T15:05:20;2.10;99.90
28244;DHT22;15510;52.512;13.300;2024-01-16T15:07:47;2.10;99.90
28244;DHT22;15510;52.512;13.300;2024-01-16T15:10:13;2.10;99.90
28244;DHT22;15510;52.512;13.300;2024-01-16T15:12:43;2.00;99.90
28244;DHT22;15510;52.512;13.300;2024-01-16T15:15:11;2.00;99.90
28244;DHT22;15510;52.512;13.300;2024-01-16T15:17:41;1.80;99.90
28244;DHT22;15510;52.512;13.300;2024-01-16T15:20:08;1.80;99.90
28244;DHT22;15510;52.512;13.300;2024-01-16T15:22:44;1.80;99.90
28244;DHT22;15510;52.512;13.300;2024-01-16T15:25:11;1.80;99.90
28244;DHT22;15510;52.512;13.300;2024-01-16T15:27:42;1.80;99.90
28244;DHT22;15510;52.512;13.300;2024-01-16T15:30:09;1.80;99.90
28244;DHT22;15510;52.512;13.300;2024-01-16T15:32:36;1.80;99.90
28244;DHT22;15510;52.512;13.300;2024-01-16T15:35:03;1.70;99.90
28244;DHT22;15510;52.512;13.300;2024-01-16T15:37:33;1.70;99.90
28244;DHT22;15510;52.512;13.300;2024-01-16T15:39:59;1.70;99.90
28244;DHT22;15510;52.512;13.300;2024-01-16T15:42:26;1.70;99.90
28244;DHT22;15510;52.512;13.300;2024-01-16T15:44:57;1.80;99.90
28244;DHT22;15510;52.512;13.300;2024-01-16T15:47:23;1.80;99.90
28244;DHT22;15510;52.512;13.300;2024-01-16T15:49:56;1.70;99.90
28244;DHT22;15510;52.512;13.300;2024-01-16T15:52:25;1.70;99.90